createdAt,value
2024-01-15T00:01:33.837Z,48.92
2024-01-15T00:04:02.226Z,58.00
2024-01-15T00:06:30.525Z,89.28
2024-01-15T00:08:59.580Z,82.55
2024-01-15T00:11:27.781Z,91.57
2024-01-15T00:13:55.855Z,107.38
2024-01-15T00:16:23.945Z,86.43
2024-01-15T00:18:52.073Z,67.10
2024-01-15T00:21:20.245Z,52.45
2024-01-15T00:23:48.410Z,60.78
2024-01-15T00:26:16.833Z,71.30
2024-01-15T00:28:44.880Z,66.57
2024-01-15T00:31:13.018Z,53.65
2024-01-15T00:33:41.795Z,47.92
2024-01-15T00:36:09.982Z,75.78
2024-01-15T00:38:38.018Z,80.57
2024-01-15T00:41:05.930Z,67.35
2024-01-15T00:43:33.975Z,51.28
2024-01-15T00:46:05.317Z,81.13
2024-01-15T00:48:34.126Z,88.95
2024-01-15T00:51:02.276Z,54.30
2024-01-15T00:53:30.343Z,49.65
2024-01-15T00:55:58.681Z,36.55
2024-01-15T00:58:27.778Z,48.72
2024-01-15T01:00:56.712Z,56.20
2024-01-15T01:03:25.099Z,49.97
2024-01-15T01:05:53.330Z,43.72
2024-01-15T01:08:21.364Z,46.22
2024-01-15T01:10:49.416Z,41.72
2024-01-15T01:13:17.457Z,40.35
2024-01-15T01:15:45.862Z,41.30
2024-01-15T01:18:14.156Z,36.22
2024-01-15T01:20:42.617Z,37.80
2024-01-15T01:23:10.710Z,41.03
2024-01-15T01:25:38.720Z,36.20
2024-01-15T01:28:06.991Z,36.35
2024-01-15T01:30:35.338Z,52.88
2024-01-15T01:33:03.664Z,64.47
2024-01-15T01:35:31.954Z,50.10
2024-01-15T01:38:00.048Z,48.15
2024-01-15T01:40:28.145Z,36.50
2024-01-15T01:42:56.163Z,26.50
2024-01-15T01:45:24.323Z,39.90
2024-01-15T01:47:52.555Z,42.97
2024-01-15T01:50:21.051Z,33.75
2024-01-15T01:52:50.379Z,41.78
2024-01-15T01:55:20.286Z,37.58
2024-01-15T01:57:48.775Z,44.33
2024-01-15T02:00:17.969Z,46.88
2024-01-15T02:02:46.801Z,37.33
2024-01-15T02:05:19.413Z,32.55
2024-01-15T02:07:47.598Z,45.13
2024-01-15T02:10:15.947Z,40.42
2024-01-15T02:12:45.089Z,41.85
2024-01-15T02:15:14.366Z,93.78
2024-01-15T02:18:08.558Z,80.70
2024-01-15T02:23:25.418Z,43.15
2024-01-15T02:25:54.057Z,41.65
2024-01-15T02:28:22.129Z,40.45
2024-01-15T02:30:50.321Z,36.30
2024-01-15T02:33:18.559Z,27.00
2024-01-15T02:35:47.833Z,32.22
2024-01-15T02:38:15.885Z,35.92
2024-01-15T02:40:45.592Z,36.33
2024-01-15T02:43:15.016Z,38.03
2024-01-15T02:45:43.141Z,47.45
2024-01-15T02:48:11.300Z,40.33
2024-01-15T02:50:39.754Z,42.75
2024-01-15T02:53:08.164Z,46.10
2024-01-15T02:55:36.353Z,42.15
2024-01-15T02:58:05.379Z,49.80
2024-01-15T03:02:48.502Z,27.42
2024-01-15T03:05:17.455Z,23.15
2024-01-15T03:07:45.520Z,28.58
2024-01-15T03:10:13.739Z,23.25
2024-01-15T03:12:41.948Z,31.35
2024-01-15T03:15:10.169Z,23.75
2024-01-15T03:17:38.211Z,32.95
2024-01-15T03:20:06.925Z,37.40
2024-01-15T03:22:35.070Z,35.05
2024-01-15T03:25:03.243Z,35.95
2024-01-15T03:27:31.553Z,45.55
2024-01-15T03:29:59.581Z,39.00
2024-01-15T03:32:27.724Z,42.00
2024-01-15T03:34:55.862Z,29.67
2024-01-15T03:37:23.961Z,33.53
2024-01-15T03:39:52.154Z,30.55
2024-01-15T03:42:20.542Z,35.92
2024-01-15T03:44:48.602Z,39.75
2024-01-15T03:47:16.677Z,42.97
2024-01-15T03:49:44.790Z,41.50
2024-01-15T03:52:13.128Z,31.95
2024-01-15T03:54:40.940Z,39.85
2024-01-15T03:57:08.992Z,35.75
2024-01-15T03:59:36.991Z,27.35
2024-01-15T04:02:05.953Z,24.55
2024-01-15T04:04:34.033Z,48.65
2024-01-15T04:07:02.564Z,32.78
2024-01-15T04:09:30.729Z,31.58
2024-01-15T04:11:58.764Z,34.33
2024-01-15T04:14:26.870Z,29.38
2024-01-15T04:16:55.106Z,45.90
2024-01-15T04:19:23.172Z,46.58
2024-01-15T04:21:51.321Z,29.10
2024-01-15T04:24:19.536Z,33.83
2024-01-15T04:26:47.674Z,59.80
2024-01-15T04:29:15.666Z,53.55
2024-01-15T04:31:43.898Z,51.20
2024-01-15T04:34:12.209Z,49.75
2024-01-15T04:36:42.596Z,52.50
2024-01-15T04:39:12.114Z,49.72
2024-01-15T04:41:40.229Z,34.97
2024-01-15T04:44:08.364Z,52.50
2024-01-15T04:46:36.549Z,33.88
2024-01-15T04:49:04.873Z,44.78
2024-01-15T04:51:33.293Z,60.92
2024-01-15T04:54:01.373Z,48.40
2024-01-15T04:56:29.639Z,63.22
2024-01-15T04:58:57.689Z,72.25
2024-01-15T05:01:25.892Z,55.42
2024-01-15T05:03:55.526Z,65.45
2024-01-15T05:06:25.630Z,61.33
2024-01-15T05:08:53.661Z,44.25
2024-01-15T05:11:21.982Z,51.72
2024-01-15T05:13:49.963Z,37.55
2024-01-15T05:16:18.016Z,40.72
2024-01-15T05:18:46.216Z,49.75
2024-01-15T05:21:17.489Z,35.47
2024-01-15T05:23:45.773Z,32.85
2024-01-15T05:26:13.728Z,30.38
2024-01-15T05:28:45.015Z,20.67
2024-01-15T05:31:13.444Z,18.00
2024-01-15T05:33:41.962Z,24.65
2024-01-15T05:36:10.191Z,23.35
2024-01-15T05:38:38.211Z,24.30
2024-01-15T05:41:07.028Z,22.02
2024-01-15T05:43:35.120Z,23.85
2024-01-15T05:46:04.353Z,20.40
2024-01-15T05:48:32.442Z,34.33
2024-01-15T05:51:00.998Z,28.90
2024-01-15T05:53:28.931Z,34.38
2024-01-15T05:55:58.267Z,47.97
2024-01-15T05:58:26.470Z,67.22
2024-01-15T06:00:54.940Z,59.17
2024-01-15T06:03:23.257Z,41.85
2024-01-15T06:05:51.518Z,39.28
2024-01-15T06:08:20.268Z,40.35
2024-01-15T06:10:48.385Z,97.20
2024-01-15T06:13:16.398Z,146.40
2024-01-15T06:15:44.453Z,83.32
2024-01-15T06:18:12.611Z,66.70
2024-01-15T06:20:41.389Z,52.75
2024-01-15T06:23:09.449Z,60.88
2024-01-15T06:25:37.530Z,88.95
2024-01-15T06:28:06.512Z,96.20
2024-01-15T06:30:34.642Z,100.15
2024-01-15T06:33:03.056Z,48.38
2024-01-15T06:35:31.237Z,74.72
2024-01-15T06:37:59.137Z,86.57
2024-01-15T06:40:27.378Z,88.53
2024-01-15T06:42:55.523Z,72.97
2024-01-15T06:45:23.801Z,78.97
2024-01-15T06:47:51.855Z,50.13
2024-01-15T06:50:19.984Z,53.97
2024-01-15T06:52:48.096Z,42.15
2024-01-15T06:55:16.161Z,41.15
2024-01-15T06:57:44.416Z,47.50
2024-01-15T07:00:12.865Z,42.70
2024-01-15T07:02:40.936Z,34.25
2024-01-15T07:05:09.226Z,35.55
2024-01-15T07:07:37.239Z,45.08
2024-01-15T07:10:06.545Z,31.15
2024-01-15T07:12:35.281Z,27.30
2024-01-15T07:15:03.547Z,50.72
2024-01-15T07:17:32.500Z,46.47
2024-01-15T07:20:01.082Z,38.17
2024-01-15T07:22:29.412Z,53.83
2024-01-15T07:24:57.568Z,44.95
2024-01-15T07:27:25.716Z,43.33
2024-01-15T07:29:53.824Z,39.47
2024-01-15T07:32:22.028Z,44.25
2024-01-15T07:34:51.164Z,45.83
2024-01-15T07:37:19.957Z,67.65
2024-01-15T07:39:48.244Z,47.90
2024-01-15T07:42:16.550Z,45.40
2024-01-15T07:44:44.736Z,53.08
2024-01-15T07:47:13.320Z,90.95
2024-01-15T07:49:41.518Z,51.65
2024-01-15T07:52:10.230Z,64.78
2024-01-15T07:54:38.730Z,56.95
2024-01-15T07:57:06.890Z,49.20
2024-01-15T07:59:36.969Z,49.20
2024-01-15T08:02:05.147Z,47.00
2024-01-15T08:04:33.336Z,49.28
2024-01-15T08:07:01.643Z,58.95
2024-01-15T08:09:31.041Z,62.60
2024-01-15T08:11:59.128Z,66.35
2024-01-15T08:14:27.256Z,32.70
2024-01-15T08:16:55.285Z,37.28
2024-01-15T08:19:23.417Z,39.53
2024-01-15T08:21:51.678Z,38.80
2024-01-15T08:24:19.793Z,49.00
2024-01-15T08:26:48.065Z,69.05
2024-01-15T08:29:16.184Z,42.28
2024-01-15T08:31:44.341Z,42.53
2024-01-15T08:34:12.695Z,53.60
2024-01-15T08:36:42.056Z,53.33
2024-01-15T08:41:38.768Z,30.50
2024-01-15T08:44:07.138Z,33.40
2024-01-15T08:46:35.230Z,35.95
2024-01-15T08:49:04.867Z,34.55
2024-01-15T08:51:33.173Z,46.60
2024-01-15T08:54:01.344Z,57.00
2024-01-15T08:56:29.450Z,93.80
2024-01-15T08:58:57.708Z,81.72
2024-01-15T09:01:25.939Z,43.00
2024-01-15T09:03:54.424Z,39.65
2024-01-15T09:06:23.207Z,76.43
2024-01-15T09:08:51.321Z,65.35
2024-01-15T09:11:19.386Z,35.97
2024-01-15T09:13:47.473Z,23.23
2024-01-15T09:16:15.769Z,15.18
2024-01-15T09:18:44.061Z,14.13
2024-01-15T09:21:13.395Z,19.92
2024-01-15T09:23:41.496Z,23.95
2024-01-15T09:26:10.621Z,15.98
2024-01-15T09:28:38.758Z,17.60
2024-01-15T09:31:07.545Z,9.55
2024-01-15T09:33:35.901Z,12.50
2024-01-15T09:36:05.241Z,8.27
2024-01-15T09:38:33.300Z,9.18
2024-01-15T09:41:01.416Z,10.18
2024-01-15T09:43:29.533Z,10.85
2024-01-15T09:45:58.743Z,11.60
2024-01-15T09:48:27.046Z,8.57
2024-01-15T09:50:55.620Z,11.10
2024-01-15T09:53:25.622Z,14.68
2024-01-15T09:55:54.560Z,13.50
2024-01-15T09:58:22.645Z,12.93
2024-01-15T10:00:51.849Z,11.68
2024-01-15T10:03:20.080Z,15.27
2024-01-15T10:05:48.527Z,9.43
2024-01-15T10:08:16.958Z,7.40
2024-01-15T10:10:45.013Z,4.65
2024-01-15T10:13:14.334Z,4.28
2024-01-15T10:15:44.280Z,4.50
2024-01-15T10:18:12.497Z,9.88
2024-01-15T10:20:41.341Z,6.13
2024-01-15T10:23:09.560Z,8.73
2024-01-15T10:25:37.557Z,6.50
2024-01-15T10:28:06.111Z,6.13
2024-01-15T10:30:35.142Z,6.82
2024-01-15T10:33:06.701Z,5.70
2024-01-15T10:35:36.251Z,11.68
2024-01-15T10:38:04.447Z,8.10
2024-01-15T10:40:33.246Z,9.57
2024-01-15T10:43:01.467Z,16.40
2024-01-15T10:45:32.468Z,7.70
2024-01-15T10:48:01.870Z,5.72
2024-01-15T10:50:31.330Z,3.60
2024-01-15T10:52:59.579Z,27.67
2024-01-15T10:55:29.263Z,36.05
2024-01-15T10:57:59.194Z,7.30
2024-01-15T11:00:27.891Z,10.73
2024-01-15T11:02:59.338Z,4.32
2024-01-15T11:05:28.400Z,5.45
2024-01-15T11:07:57.976Z,3.80
2024-01-15T11:10:48.114Z,4.75
2024-01-15T11:13:27.236Z,3.97
2024-01-15T11:15:58.708Z,8.38
2024-01-15T11:18:42.043Z,3.80
2024-01-15T11:21:16.993Z,4.63
2024-01-15T11:23:53.627Z,3.92
2024-01-15T11:26:39.398Z,20.63
2024-01-15T11:29:31.558Z,10.15
2024-01-15T11:32:02.339Z,10.23
2024-01-15T11:35:00.579Z,5.32
2024-01-15T11:40:05.503Z,5.30
2024-01-15T11:42:34.030Z,3.75
2024-01-15T11:45:05.617Z,4.78
2024-01-15T11:48:08.190Z,5.20
2024-01-15T11:50:36.425Z,16.15
2024-01-15T11:53:11.973Z,8.80
2024-01-15T11:55:46.549Z,4.00
2024-01-15T12:00:46.716Z,6.25
2024-01-15T12:03:15.407Z,4.68
2024-01-15T12:05:44.100Z,6.45
2024-01-15T12:08:12.551Z,6.32
2024-01-15T12:10:43.008Z,8.48
2024-01-15T12:13:14.773Z,7.43
2024-01-15T12:15:47.551Z,17.73
2024-01-15T12:18:18.159Z,9.45
2024-01-15T12:20:51.179Z,6.53
2024-01-15T12:23:20.286Z,7.05
2024-01-15T12:28:16.986Z,8.98
2024-01-15T12:30:51.380Z,12.15
2024-01-15T12:35:49.906Z,6.68
2024-01-15T12:38:21.552Z,7.78
2024-01-15T12:40:50.062Z,10.23
2024-01-15T12:43:19.475Z,9.20
2024-01-15T12:45:48.138Z,13.95
2024-01-15T12:48:19.676Z,9.25
2024-01-15T12:50:49.236Z,12.07
2024-01-15T12:53:18.741Z,11.82
2024-01-15T12:55:47.554Z,9.38
2024-01-15T12:58:16.960Z,9.93
2024-01-15T13:00:48.318Z,11.93
2024-01-15T13:03:26.288Z,11.52
2024-01-15T13:05:54.744Z,8.13
2024-01-15T13:08:25.275Z,6.55
2024-01-15T13:10:57.443Z,6.35
2024-01-15T13:13:25.632Z,7.78
2024-01-15T13:15:53.859Z,6.38
2024-01-15T13:18:23.103Z,5.95
2024-01-15T13:20:52.046Z,7.80
2024-01-15T13:23:21.933Z,6.85
2024-01-15T13:25:51.478Z,6.18
2024-01-15T13:28:19.620Z,8.52
2024-01-15T13:30:48.010Z,7.38
2024-01-15T13:33:16.577Z,7.00
2024-01-15T13:35:44.840Z,10.48
2024-01-15T13:38:12.991Z,10.82
2024-01-15T13:40:41.126Z,10.18
2024-01-15T13:43:09.736Z,18.38
2024-01-15T13:45:39.005Z,6.78
2024-01-15T13:48:07.936Z,5.78
2024-01-15T13:50:37.039Z,11.10
2024-01-15T13:53:05.899Z,7.55
2024-01-15T13:55:34.108Z,7.82
2024-01-15T13:58:05.270Z,6.30
2024-01-15T14:00:34.840Z,8.23
2024-01-15T14:03:03.272Z,7.72
2024-01-15T14:05:31.596Z,7.82
2024-01-15T14:08:00.200Z,6.82
2024-01-15T14:10:28.163Z,8.68
2024-01-15T14:12:56.223Z,7.20
2024-01-15T14:15:24.317Z,7.35
2024-01-15T14:17:54.031Z,9.73
2024-01-15T14:20:23.164Z,11.88
2024-01-15T14:22:52.032Z,9.13
2024-01-15T14:25:20.077Z,9.27
2024-01-15T14:27:48.928Z,5.40
2024-01-15T14:30:17.552Z,8.95
2024-01-15T14:32:46.188Z,7.70
2024-01-15T14:35:14.902Z,8.98
2024-01-15T14:37:42.981Z,17.98
2024-01-15T14:40:11.893Z,13.43
2024-01-15T14:42:40.139Z,17.67
2024-01-15T14:45:15.074Z,13.85
2024-01-15T14:47:43.472Z,10.55
2024-01-15T14:50:11.873Z,9.30
2024-01-15T14:52:47.542Z,15.32
2024-01-15T14:55:15.752Z,10.38
2024-01-15T14:57:44.002Z,14.90
2024-01-15T15:00:14.967Z,11.75
2024-01-15T15:02:43.095Z,9.30
2024-01-15T15:05:14.955Z,24.48
2024-01-15T15:07:43.083Z,29.27
2024-01-15T15:10:12.621Z,31.58
2024-01-15T15:12:40.862Z,25.38
2024-01-15T15:15:11.927Z,61.85
2024-01-15T15:17:41.577Z,53.78
2024-01-15T15:20:10.657Z,26.08
2024-01-15T15:22:38.974Z,17.70
2024-01-15T15:25:10.575Z,9.95
2024-01-15T15:27:39.273Z,10.88
2024-01-15T15:30:08.947Z,14.60
2024-01-15T15:32:37.111Z,21.23
2024-01-15T15:35:05.664Z,14.50
2024-01-15T15:37:34.460Z,11.25
2024-01-15T15:40:03.822Z,12.75
2024-01-15T15:42:32.230Z,31.02
2024-01-15T15:45:02.876Z,28.30
2024-01-15T15:47:31.840Z,14.07
2024-01-15T15:50:01.067Z,18.92
2024-01-15T15:54:58.626Z,21.95
2024-01-15T15:57:28.886Z,31.42
2024-01-15T15:59:57.712Z,19.67
2024-01-15T16:02:26.409Z,23.00
2024-01-15T16:04:56.613Z,14.70
2024-01-15T16:07:29.969Z,14.40
2024-01-15T16:09:58.997Z,16.70
2024-01-15T16:12:28.040Z,16.00
2024-01-15T16:14:57.189Z,19.42
2024-01-15T16:23:29.562Z,21.15
2024-01-15T16:23:50.902Z,13.95
2024-01-15T16:25:52.432Z,11.98
2024-01-15T16:28:22.074Z,15.00
2024-01-15T16:30:52.720Z,13.25
2024-01-15T16:33:24.509Z,23.85
2024-01-15T16:35:53.271Z,31.67
2024-01-15T16:38:22.178Z,18.17
2024-01-15T16:40:51.382Z,17.67
2024-01-15T16:45:48.353Z,11.23
2024-01-15T16:48:17.990Z,11.45
2024-01-15T16:50:46.504Z,11.98
2024-01-15T16:53:14.737Z,9.68
2024-01-15T16:55:43.206Z,10.73
2024-01-15T16:58:12.406Z,11.43
2024-01-15T17:00:40.414Z,10.43
2024-01-15T17:03:08.621Z,8.75
2024-01-15T17:05:37.557Z,10.73
2024-01-15T17:08:07.878Z,9.07
2024-01-15T17:10:35.936Z,11.95
2024-01-15T17:13:05.346Z,10.95
2024-01-15T17:15:33.624Z,9.68
2024-01-15T17:18:01.696Z,10.73
2024-01-15T17:20:29.933Z,9.02
2024-01-15T17:22:58.096Z,9.93
2024-01-15T17:25:26.190Z,12.55
2024-01-15T17:27:54.397Z,11.55
2024-01-15T17:30:22.620Z,11.75
2024-01-15T17:32:50.671Z,11.07
2024-01-15T17:35:18.812Z,11.07
2024-01-15T17:37:47.762Z,14.38
2024-01-15T17:40:16.080Z,12.15
2024-01-15T17:42:44.242Z,12.07
2024-01-15T17:45:12.576Z,16.13
2024-01-15T17:47:40.754Z,34.95
2024-01-15T17:50:09.503Z,22.63
2024-01-15T17:52:37.858Z,20.63
2024-01-15T17:55:06.954Z,17.67
2024-01-15T17:57:35.035Z,34.05
2024-01-15T18:00:06.027Z,40.42
2024-01-15T18:02:36.224Z,45.83
2024-01-15T18:05:04.568Z,45.47
2024-01-15T18:07:32.635Z,45.15
2024-01-15T18:10:39.279Z,39.53
2024-01-15T18:13:09.185Z,26.33
2024-01-15T18:15:37.951Z,27.40
2024-01-15T18:18:06.953Z,18.92
2024-01-15T18:20:37.827Z,13.85
2024-01-15T18:23:06.883Z,14.00
2024-01-15T18:25:35.724Z,11.50
2024-01-15T18:28:05.480Z,9.85
2024-01-15T18:30:34.161Z,9.45
2024-01-15T18:33:03.011Z,7.65
2024-01-15T18:35:31.866Z,7.90
2024-01-15T18:38:00.644Z,7.60
2024-01-15T18:40:33.715Z,11.82
2024-01-15T18:43:03.347Z,10.35
2024-01-15T18:45:32.057Z,12.00
2024-01-15T18:48:01.643Z,12.43
2024-01-15T18:50:30.530Z,14.65
2024-01-15T18:53:00.588Z,11.40
2024-01-15T18:55:29.420Z,12.70
2024-01-15T18:58:00.460Z,16.77
2024-01-15T19:00:29.487Z,18.60
2024-01-15T19:03:10.234Z,16.50
2024-01-15T19:05:41.813Z,13.73
2024-01-15T19:08:10.616Z,17.08
2024-01-15T19:10:39.093Z,18.95
2024-01-15T19:13:08.104Z,23.83
2024-01-15T19:15:37.157Z,39.15
2024-01-15T19:18:07.324Z,33.20
2024-01-15T19:20:36.345Z,33.78
2024-01-15T19:23:06.169Z,23.55
2024-01-15T19:25:34.738Z,22.08
2024-01-15T19:28:05.194Z,24.75
2024-01-15T19:30:33.821Z,21.17
2024-01-15T19:33:02.672Z,25.33
2024-01-15T19:35:31.560Z,31.88
2024-01-15T19:38:00.343Z,31.13
2024-01-15T19:40:30.927Z,58.10
2024-01-15T19:42:59.697Z,47.83
2024-01-15T19:45:29.404Z,36.85
2024-01-15T19:47:58.431Z,15.43
2024-01-15T19:50:27.315Z,14.50
2024-01-15T19:52:56.129Z,13.73
2024-01-15T19:55:24.967Z,18.17
2024-01-15T19:57:53.645Z,15.43
2024-01-15T20:00:22.299Z,13.65
2024-01-15T20:02:51.054Z,16.65
2024-01-15T20:05:19.849Z,20.30
2024-01-15T20:07:48.560Z,29.85
2024-01-15T20:10:17.356Z,46.22
2024-01-15T20:12:46.850Z,42.58
2024-01-15T20:15:16.213Z,29.30
2024-01-15T20:17:45.073Z,25.05
2024-01-15T20:20:14.059Z,26.92
2024-01-15T20:22:42.927Z,32.47
2024-01-15T20:25:11.736Z,19.90
2024-01-15T20:27:40.532Z,21.83
2024-01-15T20:30:09.798Z,12.68
2024-01-15T20:32:38.749Z,12.35
2024-01-15T20:35:08.077Z,14.27
2024-01-15T20:40:06.390Z,8.63
2024-01-15T20:42:35.069Z,11.27
2024-01-15T20:45:04.598Z,25.10
2024-01-15T20:47:33.367Z,22.15
2024-01-15T20:50:02.429Z,45.30
2024-01-15T20:54:59.987Z,23.85
2024-01-15T20:57:28.861Z,17.08
2024-01-15T20:59:57.657Z,42.58
2024-01-15T21:02:26.478Z,40.38
2024-01-15T21:04:55.377Z,39.95
2024-01-15T21:07:24.227Z,22.23
2024-01-15T21:09:52.946Z,13.43
2024-01-15T21:12:23.199Z,17.30
2024-01-15T21:14:57.169Z,22.15
2024-01-15T21:17:27.604Z,31.75
2024-01-15T21:19:59.781Z,44.05
2024-01-15T21:22:30.096Z,14.13
2024-01-15T21:24:59.770Z,37.60
2024-01-15T21:27:28.546Z,24.08
2024-01-15T21:29:57.517Z,26.38
2024-01-15T21:32:26.468Z,16.23
2024-01-15T21:34:55.372Z,14.07
2024-01-15T21:37:23.534Z,14.90
2024-01-15T21:39:52.166Z,14.75
2024-01-15T21:42:22.424Z,11.40
2024-01-15T21:44:51.269Z,13.15
2024-01-15T21:47:19.669Z,10.23
2024-01-15T21:49:47.781Z,12.48
2024-01-15T21:52:16.268Z,9.82
2024-01-15T21:54:44.839Z,10.35
2024-01-15T21:57:13.360Z,10.45
2024-01-15T21:59:41.955Z,8.55
2024-01-15T22:02:10.700Z,9.07
2024-01-15T22:04:38.998Z,7.60
2024-01-15T22:07:07.773Z,9.32
2024-01-15T22:09:35.990Z,11.90
2024-01-15T22:12:04.465Z,12.77
2024-01-15T22:14:32.483Z,13.18
2024-01-15T22:17:00.739Z,13.43
2024-01-15T22:19:29.107Z,13.63
2024-01-15T22:21:57.258Z,12.15
2024-01-15T22:24:25.340Z,14.43
2024-01-15T22:26:54.669Z,11.73
2024-01-15T22:34:18.976Z,9.90
2024-01-15T22:36:47.182Z,14.70
2024-01-15T22:39:16.308Z,11.18
2024-01-15T22:41:44.542Z,8.85
2024-01-15T22:44:12.751Z,10.52
2024-01-15T22:46:41.096Z,16.38
2024-01-15T22:49:09.216Z,22.17
2024-01-15T22:51:37.582Z,36.58
2024-01-15T22:54:05.760Z,15.23
2024-01-15T22:56:33.800Z,12.52
2024-01-15T22:59:02.134Z,12.45
2024-01-15T23:01:30.952Z,9.00
2024-01-15T23:03:59.013Z,14.82
2024-01-15T23:06:27.481Z,16.33
2024-01-15T23:08:56.728Z,15.15
2024-01-15T23:11:24.867Z,11.57
2024-01-15T23:13:54.069Z,14.07
2024-01-15T23:18:50.016Z,13.68
2024-01-15T23:21:18.527Z,18.63
2024-01-15T23:23:46.465Z,17.85
2024-01-15T23:26:14.700Z,14.98
2024-01-15T23:28:42.842Z,11.63
2024-01-15T23:31:10.977Z,13.98
2024-01-15T23:33:38.970Z,12.32
2024-01-15T23:36:10.133Z,14.65
2024-01-15T23:38:42.783Z,14.38
2024-01-15T23:41:19.651Z,13.82
2024-01-15T23:43:49.041Z,15.00
2024-01-15T23:48:49.330Z,13.77
2024-01-15T23:51:17.874Z,14.98
2024-01-15T23:53:45.878Z,14.10
2024-01-15T23:56:14.840Z,18.35
2024-01-15T23:58:43.157Z,13.38
